createdAt,value
2019-05-25T00:00:55.574Z,16.73
2019-05-25T00:03:59.307Z,16.65
2019-05-25T00:07:02.940Z,16.69
2019-05-25T00:10:08.228Z,16.81
2019-05-25T00:13:11.889Z,16.93
2019-05-25T00:16:15.606Z,17.01
2019-05-25T00:19:19.520Z,17.04
2019-05-25T00:22:23.128Z,17.13
2019-05-25T00:25:26.784Z,17.04
2019-05-25T00:28:30.599Z,16.84
2019-05-25T00:31:34.245Z,16.84
2019-05-25T00:34:37.935Z,16.86
2019-05-25T00:37:41.668Z,16.86
2019-05-25T00:40:45.278Z,16.90
2019-05-25T00:43:48.917Z,16.97
2019-05-25T00:46:52.546Z,17.01
2019-05-25T00:49:56.232Z,16.97
2019-05-25T00:52:59.961Z,16.91
2019-05-25T00:56:03.617Z,16.92
2019-05-25T00:59:07.293Z,16.90
2019-05-25T01:02:10.963Z,16.93
2019-05-25T01:05:15.176Z,16.95
2019-05-25T01:08:18.839Z,16.82
2019-05-25T01:11:22.563Z,16.62
2019-05-25T01:14:26.215Z,16.60
2019-05-25T01:17:31.690Z,16.63
2019-05-25T01:20:35.360Z,16.67
2019-05-25T01:23:38.992Z,16.65
2019-05-25T01:26:42.618Z,16.71
2019-05-25T01:29:46.294Z,16.67
2019-05-25T01:32:49.922Z,16.73
2019-05-25T01:35:53.548Z,16.65
2019-05-25T01:38:57.174Z,16.59
2019-05-25T01:42:00.920Z,16.51
2019-05-25T01:45:09.272Z,16.41
2019-05-25T01:48:12.967Z,16.42
2019-05-25T01:51:16.634Z,16.25
2019-05-25T01:54:20.298Z,16.23
2019-05-25T01:57:23.913Z,16.21
2019-05-25T02:00:28.027Z,16.10
2019-05-25T02:03:31.640Z,16.07
2019-05-25T02:06:35.339Z,16.12
2019-05-25T02:09:38.929Z,15.96
2019-05-25T02:12:42.585Z,16.08
2019-05-25T02:15:46.532Z,16.01
2019-05-25T02:18:50.187Z,15.93
2019-05-25T02:21:53.843Z,15.86
2019-05-25T02:24:57.469Z,15.85
2019-05-25T02:28:01.138Z,15.73
2019-05-25T02:31:04.879Z,15.78
2019-05-25T02:34:08.458Z,15.78
2019-05-25T02:37:12.066Z,15.65
2019-05-25T02:40:15.719Z,15.69
2019-05-25T02:43:19.303Z,15.62
2019-05-25T02:46:22.933Z,15.48
2019-05-25T02:49:26.661Z,15.54
2019-05-25T02:52:30.194Z,15.52
2019-05-25T02:55:35.178Z,15.33
2019-05-25T02:58:39.047Z,15.27
2019-05-25T03:01:42.700Z,15.26
2019-05-25T03:04:46.322Z,15.09
2019-05-25T03:07:53.756Z,15.03
2019-05-25T03:10:58.623Z,14.96
2019-05-25T03:14:03.327Z,14.78
2019-05-25T03:17:06.884Z,14.72
2019-05-25T03:20:11.155Z,14.71
2019-05-25T03:23:14.737Z,14.63
2019-05-25T03:26:18.264Z,14.61
2019-05-25T03:29:21.850Z,14.66
2019-05-25T03:32:25.575Z,14.61
2019-05-25T03:35:29.215Z,14.62
2019-05-25T03:38:32.788Z,14.44
2019-05-25T03:41:36.923Z,14.44
2019-05-25T03:44:40.539Z,14.37
2019-05-25T03:47:44.098Z,14.49
2019-05-25T03:50:47.670Z,14.33
2019-05-25T03:53:51.221Z,14.39
2019-05-25T03:56:54.804Z,14.49
2019-05-25T03:59:58.337Z,14.62
2019-05-25T04:03:02.070Z,14.50
2019-05-25T04:06:05.607Z,14.31
2019-05-25T04:09:09.173Z,14.35
2019-05-25T04:12:12.715Z,14.21
2019-05-25T04:15:16.359Z,14.24
2019-05-25T04:18:19.887Z,14.19
2019-05-25T04:21:23.467Z,14.14
2019-05-25T04:24:27.000Z,13.91
2019-05-25T04:27:30.585Z,13.78
2019-05-25T04:30:34.164Z,13.99
2019-05-25T04:33:37.744Z,14.24
2019-05-25T04:36:41.345Z,14.31
2019-05-25T04:39:44.889Z,14.41
2019-05-25T04:42:48.456Z,14.96
2019-05-25T04:45:51.988Z,15.21
2019-05-25T04:48:55.565Z,14.95
2019-05-25T04:51:59.092Z,14.43
2019-05-25T04:55:02.725Z,14.84
2019-05-25T04:58:06.242Z,15.39
2019-05-25T05:01:09.841Z,14.93
2019-05-25T05:04:13.451Z,14.86
2019-05-25T05:07:17.026Z,14.82
2019-05-25T05:10:20.797Z,15.21
2019-05-25T05:13:24.361Z,15.06
2019-05-25T05:16:27.942Z,15.72
2019-05-25T05:19:31.544Z,15.55
2019-05-25T05:22:35.113Z,15.64
2019-05-25T05:25:38.743Z,15.80
2019-05-25T05:28:42.296Z,15.79
2019-05-25T05:31:45.865Z,15.59
2019-05-25T05:34:49.513Z,15.18
2019-05-25T05:37:53.325Z,15.52
2019-05-25T05:40:58.664Z,15.79
2019-05-25T05:44:04.493Z,15.50
2019-05-25T05:47:11.185Z,16.19
2019-05-25T05:50:16.987Z,16.26
2019-05-25T05:53:23.055Z,16.54
2019-05-25T05:56:26.718Z,16.63
2019-05-25T05:59:30.315Z,16.96
2019-05-25T06:02:33.967Z,16.86
2019-05-25T06:05:37.788Z,16.58
2019-05-25T06:08:41.439Z,15.59
2019-05-25T06:11:45.038Z,15.90
2019-05-25T06:14:48.781Z,16.47
2019-05-25T06:17:52.413Z,16.53
2019-05-25T06:20:56.043Z,16.56
2019-05-25T06:23:59.649Z,16.52
2019-05-25T06:27:03.304Z,16.28
2019-05-25T06:30:07.899Z,16.75
2019-05-25T06:33:11.542Z,17.22
2019-05-25T06:36:15.210Z,18.19
2019-05-25T06:39:19.509Z,18.69
2019-05-25T06:42:23.161Z,18.30
2019-05-25T06:45:26.793Z,18.05
2019-05-25T06:48:30.432Z,17.53
2019-05-25T06:51:34.069Z,17.34
2019-05-25T06:54:37.724Z,17.51
2019-05-25T06:57:43.605Z,17.32
2019-05-25T07:00:46.773Z,17.56
2019-05-25T07:03:50.376Z,17.84
2019-05-25T07:06:54.008Z,17.93
2019-05-25T07:09:57.670Z,18.95
2019-05-25T07:13:01.662Z,19.21
2019-05-25T07:16:05.304Z,20.24
2019-05-25T07:19:08.934Z,20.35
2019-05-25T07:22:12.796Z,19.48
2019-05-25T07:25:20.023Z,19.90
2019-05-25T07:28:22.033Z,20.38
2019-05-25T07:31:25.848Z,19.39
2019-05-25T07:34:29.451Z,18.72
2019-05-25T07:37:33.091Z,18.98
2019-05-25T07:40:36.738Z,18.75
2019-05-25T07:43:40.353Z,19.03
2019-05-25T07:46:44.007Z,19.00
2019-05-25T07:49:47.677Z,17.46
2019-05-25T07:52:51.385Z,17.89
2019-05-25T07:55:55.083Z,17.78
2019-05-25T07:58:58.727Z,18.05
2019-05-25T08:02:02.382Z,17.49
2019-05-25T08:05:07.133Z,17.80
2019-05-25T08:08:10.784Z,17.83
2019-05-25T08:11:14.449Z,17.82
2019-05-25T08:14:18.063Z,18.60
2019-05-25T08:17:21.707Z,18.86
2019-05-25T08:20:25.326Z,19.12
2019-05-25T08:23:29.002Z,18.36
2019-05-25T08:26:32.664Z,18.99
2019-05-25T08:29:36.326Z,18.06
2019-05-25T08:32:39.982Z,18.98
2019-05-25T08:35:46.433Z,18.99
2019-05-25T08:38:48.965Z,19.30
2019-05-25T08:41:52.568Z,18.74
2019-05-25T08:44:56.225Z,19.14
2019-05-25T08:47:59.845Z,20.01
2019-05-25T08:51:03.548Z,20.64
2019-05-25T08:54:07.198Z,19.81
2019-05-25T08:57:14.842Z,20.63
2019-05-25T09:00:16.558Z,20.48
2019-05-25T09:03:20.186Z,21.19
2019-05-25T09:06:23.796Z,20.99
2019-05-25T09:09:27.465Z,20.73
2019-05-25T09:12:31.088Z,21.33
2019-05-25T09:15:34.737Z,20.28
2019-05-25T09:18:38.400Z,18.58
2019-05-25T09:21:42.042Z,19.37
2019-05-25T09:24:45.661Z,20.49
2019-05-25T09:27:50.013Z,21.32
2019-05-25T09:30:55.247Z,20.57
2019-05-25T09:33:58.872Z,20.65
2019-05-25T09:37:02.511Z,21.15
2019-05-25T09:40:07.239Z,21.36
2019-05-25T09:43:10.876Z,22.51
2019-05-25T09:46:14.495Z,23.24
2019-05-25T09:49:18.168Z,24.12
2019-05-25T09:52:21.807Z,23.56
2019-05-25T09:55:25.637Z,21.38
2019-05-25T09:58:29.273Z,22.25
2019-05-25T10:01:32.892Z,23.43
2019-05-25T10:04:37.060Z,23.72
2019-05-25T10:07:40.687Z,24.26
2019-05-25T10:10:44.341Z,24.63
2019-05-25T10:13:47.990Z,24.62
2019-05-25T10:16:51.640Z,23.43
2019-05-25T10:19:55.284Z,23.80
2019-05-25T10:22:58.971Z,25.42
2019-05-25T10:26:02.707Z,25.65
2019-05-25T10:29:06.358Z,24.70
2019-05-25T10:32:10.012Z,25.26
2019-05-25T10:35:14.565Z,24.45
2019-05-25T10:38:18.239Z,25.66
2019-05-25T10:41:21.890Z,27.89
2019-05-25T10:44:25.514Z,26.98
2019-05-25T10:47:29.190Z,25.07
2019-05-25T10:50:32.814Z,26.87
2019-05-25T10:53:36.502Z,26.67
2019-05-25T10:56:40.118Z,27.49
2019-05-25T10:59:52.958Z,25.57
2019-05-25T11:02:51.688Z,24.26
2019-05-25T11:05:57.145Z,22.09
2019-05-25T11:09:00.740Z,21.88
2019-05-25T11:12:04.644Z,21.12
2019-05-25T11:15:08.969Z,22.30
2019-05-25T11:18:14.108Z,24.76
2019-05-25T11:21:17.814Z,24.25
2019-05-25T11:24:21.462Z,26.00
2019-05-25T11:27:25.101Z,27.46
2019-05-25T11:30:28.755Z,25.01
2019-05-25T11:33:32.369Z,25.08
2019-05-25T11:36:36.189Z,23.47
2019-05-25T11:39:39.796Z,23.62
2019-05-25T11:42:45.066Z,22.52
2019-05-25T11:45:48.690Z,22.79
2019-05-25T11:48:52.341Z,22.94
2019-05-25T11:51:57.475Z,22.80
2019-05-25T11:55:01.155Z,23.44
2019-05-25T11:58:05.125Z,22.49
2019-05-25T12:01:08.817Z,24.34
2019-05-25T12:04:12.475Z,25.64
2019-05-25T12:07:16.181Z,25.34
2019-05-25T12:10:21.468Z,26.56
2019-05-25T12:13:25.140Z,26.77
2019-05-25T12:16:28.783Z,23.51
2019-05-25T12:19:32.434Z,23.15
2019-05-25T12:22:37.570Z,22.97
2019-05-25T12:25:41.234Z,25.06
2019-05-25T12:28:44.850Z,24.30
2019-05-25T12:31:48.615Z,24.55
2019-05-25T12:34:52.254Z,25.23
2019-05-25T12:37:55.907Z,27.10
2019-05-25T12:40:59.572Z,25.84
2019-05-25T12:44:03.411Z,25.87
2019-05-25T12:47:07.021Z,25.01
2019-05-25T12:50:11.024Z,25.38
2019-05-25T12:53:14.751Z,22.97
2019-05-25T12:56:18.370Z,21.92
2019-05-25T12:59:22.019Z,23.95
2019-05-25T13:02:25.696Z,24.22
2019-05-25T13:05:34.133Z,26.85
2019-05-25T13:08:34.667Z,27.90
2019-05-25T13:11:38.334Z,27.38
2019-05-25T13:14:41.985Z,25.04
2019-05-25T13:17:45.669Z,23.17
2019-05-25T13:20:49.283Z,24.45
2019-05-25T13:23:52.955Z,24.25
2019-05-25T13:26:56.595Z,26.19
2019-05-25T13:30:03.000Z,26.00
2019-05-25T13:33:05.604Z,23.28
2019-05-25T13:36:09.335Z,21.72
2019-05-25T13:39:13.061Z,21.09
2019-05-25T13:42:16.720Z,23.35
2019-05-25T13:45:21.969Z,25.45
2019-05-25T13:48:25.610Z,24.52
2019-05-25T13:51:29.364Z,24.45
2019-05-25T13:54:33.034Z,24.18
2019-05-25T13:57:36.698Z,23.76
2019-05-25T14:00:40.401Z,25.56
2019-05-25T14:03:44.050Z,24.69
2019-05-25T14:06:47.779Z,24.66
2019-05-25T14:09:51.429Z,24.85
2019-05-25T14:12:56.673Z,25.42
2019-05-25T14:16:07.418Z,24.79
2019-05-25T14:19:11.721Z,24.58
2019-05-25T14:22:15.393Z,23.09
2019-05-25T14:25:19.097Z,22.82
2019-05-25T14:28:22.686Z,23.18
2019-05-25T14:31:26.431Z,22.20
2019-05-25T14:34:30.129Z,21.96
2019-05-25T14:37:36.488Z,21.96
2019-05-25T14:40:40.144Z,22.24
2019-05-25T14:43:46.956Z,22.15
2019-05-25T14:46:50.508Z,21.88
2019-05-25T14:49:54.358Z,21.32
2019-05-25T14:52:57.974Z,21.35
2019-05-25T14:56:01.707Z,21.54
2019-05-25T14:59:05.556Z,21.03
2019-05-25T15:02:09.289Z,20.62
2019-05-25T15:05:13.366Z,20.62
2019-05-25T15:08:17.045Z,20.96
2019-05-25T15:11:20.669Z,20.35
2019-05-25T15:14:24.335Z,20.24
2019-05-25T15:17:28.006Z,20.64
2019-05-25T15:20:31.776Z,20.56
2019-05-25T15:23:35.437Z,20.93
2019-05-25T15:26:39.054Z,20.96
2019-05-25T15:29:42.717Z,20.82
2019-05-25T15:32:46.404Z,20.74
2019-05-25T15:35:50.057Z,20.83
2019-05-25T15:38:53.787Z,20.55
2019-05-25T15:41:57.444Z,20.61
2019-05-25T15:45:01.087Z,20.81
2019-05-25T15:48:05.173Z,20.48
2019-05-25T15:51:08.817Z,20.48
2019-05-25T15:54:12.453Z,20.45
2019-05-25T15:57:16.079Z,20.00
2019-05-25T16:00:21.357Z,19.50
2019-05-25T16:03:24.999Z,19.41
2019-05-25T16:06:28.648Z,19.15
2019-05-25T16:09:32.280Z,19.37
2019-05-25T16:12:35.934Z,19.35
2019-05-25T16:15:40.509Z,19.66
2019-05-25T16:18:44.135Z,19.28
2019-05-25T16:21:47.856Z,19.24
2019-05-25T16:24:51.557Z,19.08
2019-05-25T16:27:55.170Z,19.35
2019-05-25T16:30:58.812Z,19.26
2019-05-25T16:34:02.462Z,19.03
2019-05-25T16:37:06.313Z,19.26
2019-05-25T16:40:10.349Z,19.25
2019-05-25T16:43:14.104Z,19.24
2019-05-25T16:46:17.743Z,19.00
2019-05-25T16:49:21.445Z,19.13
2019-05-25T16:52:25.152Z,19.05
2019-05-25T16:55:28.819Z,18.85
2019-05-25T16:58:32.560Z,18.91
2019-05-25T17:01:47.607Z,18.55
2019-05-25T17:04:41.716Z,18.33
2019-05-25T17:07:45.665Z,18.26
2019-05-25T17:10:49.787Z,18.07
2019-05-25T17:13:53.585Z,18.17
2019-05-25T17:16:57.291Z,18.23
2019-05-25T17:20:01.012Z,18.17
2019-05-25T17:23:04.729Z,18.00
2019-05-25T17:26:08.404Z,17.92
2019-05-25T17:29:12.038Z,17.75
2019-05-25T17:32:15.689Z,17.65
2019-05-25T17:35:19.358Z,17.68
2019-05-25T17:38:23.056Z,17.67
2019-05-25T17:41:26.719Z,17.68
2019-05-25T17:44:30.382Z,17.57
2019-05-25T17:47:34.017Z,17.34
2019-05-25T17:50:37.853Z,17.38
2019-05-25T17:53:41.574Z,17.36
2019-05-25T17:56:45.264Z,17.43
2019-05-25T17:59:48.923Z,17.45
2019-05-25T18:02:52.556Z,17.30
2019-05-25T18:05:56.221Z,17.33
2019-05-25T18:08:59.948Z,17.16
2019-05-25T18:12:03.740Z,17.04
2019-05-25T18:15:09.518Z,17.04
2019-05-25T18:18:13.129Z,16.93
2019-05-25T18:21:16.911Z,16.81
2019-05-25T18:24:20.660Z,16.63
2019-05-25T18:27:24.256Z,16.63
2019-05-25T18:30:29.559Z,16.48
2019-05-25T18:33:33.439Z,16.35
2019-05-25T18:36:37.066Z,16.21
2019-05-25T18:39:40.728Z,16.12
2019-05-25T18:42:44.306Z,15.99
2019-05-25T18:45:47.965Z,15.89
2019-05-25T18:48:51.518Z,15.89
2019-05-25T18:51:55.182Z,15.82
2019-05-25T18:54:58.714Z,15.71
2019-05-25T18:58:02.355Z,15.58
2019-05-25T19:01:05.957Z,15.48
2019-05-25T19:04:09.615Z,15.44
2019-05-25T19:07:13.238Z,15.44
2019-05-25T19:10:17.658Z,15.36
2019-05-25T19:13:21.201Z,15.38
2019-05-25T19:16:24.759Z,15.34
2019-05-25T19:19:28.308Z,15.22
2019-05-25T19:22:31.876Z,15.17
2019-05-25T19:25:35.462Z,15.09
2019-05-25T19:28:39.108Z,14.92
2019-05-25T19:31:42.649Z,14.80
2019-05-25T19:34:59.126Z,14.79
2019-05-25T19:37:51.489Z,14.70
2019-05-25T19:40:55.041Z,14.53
2019-05-25T19:43:58.619Z,14.49
2019-05-25T19:47:02.517Z,14.42
2019-05-25T19:50:07.418Z,14.50
2019-05-25T19:53:11.135Z,14.38
2019-05-25T19:56:14.679Z,14.39
2019-05-25T19:59:18.348Z,14.41
2019-05-25T20:02:21.944Z,14.30
2019-05-25T20:05:25.580Z,14.21
2019-05-25T20:08:29.183Z,14.14
2019-05-25T20:11:32.896Z,14.09
2019-05-25T20:14:36.574Z,14.02
2019-05-25T20:17:40.220Z,13.95
2019-05-25T20:20:43.810Z,13.90
2019-05-25T20:23:47.418Z,13.90
2019-05-25T20:26:50.953Z,13.90
2019-05-25T20:29:54.517Z,13.80
2019-05-25T20:32:59.742Z,13.77
2019-05-25T20:36:03.339Z,13.67
2019-05-25T20:39:07.787Z,13.68
2019-05-25T20:42:14.806Z,13.68
2019-05-25T20:45:16.843Z,13.69
2019-05-25T20:48:20.446Z,13.65
2019-05-25T20:51:24.053Z,13.52
2019-05-25T20:54:27.732Z,13.51
2019-05-25T20:57:31.307Z,13.53
2019-05-25T21:00:35.029Z,13.48
2019-05-25T21:03:40.245Z,13.43
2019-05-25T21:06:43.827Z,13.77
2019-05-25T21:09:47.719Z,13.75
2019-05-25T21:12:51.331Z,13.70
2019-05-25T21:15:54.848Z,13.59
2019-05-25T21:18:58.441Z,13.57
2019-05-25T21:22:02.021Z,13.46
2019-05-25T21:25:10.135Z,13.43
2019-05-25T21:28:13.803Z,13.43
2019-05-25T21:31:17.336Z,13.58
2019-05-25T21:34:20.944Z,13.57
2019-05-25T21:37:24.552Z,13.66
2019-05-25T21:40:28.164Z,13.75
2019-05-25T21:43:31.790Z,13.83
2019-05-25T21:46:35.329Z,13.75
2019-05-25T21:49:40.584Z,13.86
2019-05-25T21:52:44.137Z,13.91
2019-05-25T21:55:47.717Z,13.97
2019-05-25T21:58:51.245Z,13.96
2019-05-25T22:01:54.847Z,13.91
2019-05-25T22:04:58.388Z,13.81
2019-05-25T22:08:01.992Z,13.87
2019-05-25T22:11:05.686Z,13.94
2019-05-25T22:14:09.273Z,13.80
2019-05-25T22:17:12.844Z,13.73
2019-05-25T22:20:17.025Z,13.60
2019-05-25T22:23:21.478Z,13.57
2019-05-25T22:26:25.418Z,13.49
2019-05-25T22:29:29.018Z,13.56
2019-05-25T22:32:33.023Z,13.61
2019-05-25T22:35:36.632Z,13.56
2019-05-25T22:38:40.315Z,13.56
2019-05-25T22:41:46.099Z,13.48
2019-05-25T22:44:49.676Z,13.44
2019-05-25T22:47:53.340Z,13.41
2019-05-25T22:50:56.891Z,13.58
2019-05-25T22:54:00.443Z,13.57
2019-05-25T22:57:05.470Z,13.47
2019-05-25T23:00:11.298Z,13.47
2019-05-25T23:03:14.850Z,13.47
2019-05-25T23:06:18.557Z,13.33
2019-05-25T23:09:22.177Z,13.22
2019-05-25T23:12:25.736Z,13.22
2019-05-25T23:15:29.305Z,13.17
2019-05-25T23:18:32.909Z,13.07
2019-05-25T23:21:36.485Z,13.04
2019-05-25T23:24:40.083Z,12.95
2019-05-25T23:27:43.797Z,12.84
2019-05-25T23:30:47.294Z,12.77
2019-05-25T23:33:50.930Z,12.73
2019-05-25T23:36:54.509Z,12.73
2019-05-25T23:39:58.102Z,12.66
2019-05-25T23:43:01.707Z,12.69
2019-05-25T23:46:05.472Z,12.66
2019-05-25T23:49:09.073Z,12.57
2019-05-25T23:52:12.942Z,12.51
2019-05-25T23:55:16.750Z,12.50
2019-05-25T23:58:20.311Z,12.50
